Impacts TAF Board
For situational awareness. Not to be used for flight planning purposes.
IDs:

KGTR - Golden Triangle Arpt, MS, US

Issued at 1155 UTC 21 Feb 2019
Updated at 1405 UTC 21 Feb 2019
Potential Impact None Slight Moderate High
Time<<22/03Z 22/04Z 22/05Z 22/06Z 22/07Z 22/08Z 22/09Z 22/10Z 22/11Z 22/12Z 22/13Z 22/14Z 22/15Z>>
Type PRVL PRVL PRVL PRVL PRVL PRVL PRVL PRVL PRVL
VIS >6 >6 >6 6 6 6 6 6 6
CIG 15 15 15 8 8 8 8 8 8
Cover BKN BKN BKN OVC OVC OVC OVC OVC OVC
FltCat MVFR MVFR MVFR IFR IFR IFR IFR IFR IFR
WX VCSH VCSH VCSH SHRA SHRA SHRA SHRA SHRA SHRA
WDir 20 20 20 60 60 60 60 60 60
WSpd 8 8 8 8 8 8 8 8 8
WGst -- -- -- -- -- -- -- -- --
Raw TAF
KGTR 211155Z 2112/2212 02008KT P6SM -SHRA FEW008 BKN070
  TEMPO 2112/2114 6SM -TSRA SCT025CB BKN070
  FM211600 02008KT P6SM VCSH FEW008 BKN015
  FM220600 06008KT 6SM SHRA BKN008 OVC025


METAR Board
Radar Display
Forecast Discussion
For situational awareness. Not to be used for flight planning purposes.